createdAt,value
2022-10-29T00:02:52.083Z,8.73
2022-10-29T00:08:03.013Z,7.60
2022-10-29T00:13:11.606Z,8.63
2022-10-29T00:18:19.527Z,8.70
2022-10-29T00:23:27.995Z,7.97
2022-10-29T00:28:35.948Z,7.47
2022-10-29T00:33:45.069Z,8.57
2022-10-29T00:38:53.281Z,8.17
2022-10-29T00:44:04.258Z,10.00
2022-10-29T00:49:12.712Z,9.40
2022-10-29T00:54:20.685Z,9.63
2022-10-29T00:59:28.572Z,10.07
2022-10-29T01:04:36.531Z,11.00
2022-10-29T01:09:44.411Z,10.07
2022-10-29T01:14:56.806Z,9.83
2022-10-29T01:20:11.901Z,10.10
2022-10-29T01:25:24.180Z,9.63
2022-10-29T01:30:37.218Z,11.07
2022-10-29T01:35:49.416Z,10.60
2022-10-29T01:41:01.107Z,10.30
2022-10-29T01:46:14.082Z,10.73
2022-10-29T01:51:26.214Z,10.60
2022-10-29T01:56:34.950Z,10.17
2022-10-29T02:01:47.998Z,10.57
2022-10-29T02:07:00.411Z,10.00
2022-10-29T02:17:25.222Z,9.97
2022-10-29T02:22:39.524Z,9.60
2022-10-29T02:27:47.873Z,10.70
2022-10-29T02:32:58.562Z,10.53
2022-10-29T02:38:07.694Z,9.57
2022-10-29T02:43:16.481Z,10.17
2022-10-29T02:48:25.076Z,9.47
2022-10-29T02:53:37.552Z,9.43
2022-10-29T02:58:47.135Z,10.13
2022-10-29T03:03:55.333Z,8.73
2022-10-29T03:09:04.026Z,8.93
2022-10-29T03:14:13.109Z,8.90
2022-10-29T03:19:20.933Z,9.30
2022-10-29T03:24:29.014Z,9.50
2022-10-29T03:29:37.493Z,8.87
2022-10-29T03:34:45.373Z,10.20
2022-10-29T03:39:53.235Z,8.73
2022-10-29T03:45:01.571Z,9.73
2022-10-29T03:50:11.069Z,10.13
2022-10-29T03:55:18.928Z,10.73
2022-10-29T04:00:26.776Z,9.40
2022-10-29T04:05:34.621Z,9.33
2022-10-29T04:10:45.921Z,10.07
2022-10-29T04:15:55.982Z,9.40
2022-10-29T04:22:45.375Z,8.70
2022-10-29T04:31:24.923Z,9.07
2022-10-29T04:36:34.810Z,8.07
2022-10-29T04:41:43.865Z,7.87
2022-10-29T04:46:54.588Z,8.00
2022-10-29T04:52:03.425Z,8.30
2022-10-29T04:57:13.441Z,8.23
2022-10-29T05:02:22.304Z,10.13
2022-10-29T05:07:31.376Z,10.00
2022-10-29T05:12:40.372Z,9.13
2022-10-29T05:17:49.171Z,8.47
2022-10-29T05:23:00.722Z,8.80
2022-10-29T05:28:11.590Z,8.70
2022-10-29T05:33:21.158Z,8.90
2022-10-29T05:38:30.424Z,8.17
2022-10-29T05:43:42.046Z,8.20
2022-10-29T05:48:51.436Z,7.83
2022-10-29T05:53:59.888Z,9.60
2022-10-29T05:59:08.333Z,8.83
2022-10-29T06:04:17.694Z,8.23
2022-10-29T06:09:26.561Z,9.90
2022-10-29T06:14:35.385Z,9.80
2022-10-29T06:19:45.508Z,9.50
2022-10-29T06:24:54.524Z,9.10
2022-10-29T06:30:03.648Z,8.53
2022-10-29T06:35:12.533Z,8.07
2022-10-29T06:40:21.634Z,8.63
2022-10-29T06:45:30.273Z,8.93
2022-10-29T06:50:38.723Z,9.27
2022-10-29T06:55:46.629Z,8.00
2022-10-29T07:00:54.644Z,7.90
2022-10-29T07:06:02.547Z,7.13
2022-10-29T07:11:10.847Z,6.77
2022-10-29T07:16:18.802Z,5.93
2022-10-29T07:21:26.973Z,6.70
2022-10-29T07:26:34.862Z,5.87
2022-10-29T07:31:42.750Z,5.50
2022-10-29T07:36:50.638Z,5.53
2022-10-29T07:41:59.416Z,5.47
2022-10-29T07:47:07.366Z,5.20
2022-10-29T07:52:15.291Z,5.03
2022-10-29T07:57:23.520Z,5.17
2022-10-29T08:02:31.404Z,5.97
2022-10-29T08:07:39.221Z,6.40
2022-10-29T08:12:50.357Z,4.93
2022-10-29T08:17:58.960Z,5.10
2022-10-29T08:23:06.780Z,5.00
2022-10-29T08:28:15.560Z,4.80
2022-10-29T08:33:24.367Z,5.00
2022-10-29T08:38:32.171Z,4.60
2022-10-29T08:43:47.416Z,4.57
2022-10-29T08:48:55.647Z,5.17
2022-10-29T08:54:25.593Z,5.47
2022-10-29T08:59:17.251Z,4.53
2022-10-29T09:09:42.782Z,5.73
2022-10-29T09:14:54.231Z,4.93
2022-10-29T09:20:05.856Z,4.43
2022-10-29T09:25:17.455Z,4.47
2022-10-29T09:30:25.524Z,3.83
2022-10-29T09:35:37.916Z,4.13
2022-10-29T09:40:45.720Z,4.10
2022-10-29T09:45:57.119Z,3.23
2022-10-29T09:51:08.146Z,3.70
2022-10-29T09:56:16.070Z,3.00
2022-10-29T10:01:24.129Z,3.33
2022-10-29T10:06:36.492Z,3.10
2022-10-29T10:11:45.636Z,3.40
2022-10-29T10:16:58.373Z,3.10
2022-10-29T10:22:08.531Z,3.57
2022-10-29T10:32:33.132Z,2.80
2022-10-29T10:37:40.952Z,3.33
2022-10-29T10:42:48.787Z,3.00
2022-10-29T10:47:59.425Z,3.10
2022-10-29T10:53:10.766Z,3.13
2022-10-29T10:58:21.904Z,3.07
2022-10-29T11:03:32.912Z,2.97
2022-10-29T11:08:44.094Z,3.03
2022-10-29T11:13:53.288Z,3.40
2022-10-29T11:19:04.254Z,3.20
2022-10-29T11:24:15.226Z,2.60
2022-10-29T11:29:26.220Z,2.40
2022-10-29T11:34:37.274Z,2.13
2022-10-29T11:39:47.695Z,2.40
2022-10-29T11:44:55.513Z,2.50
2022-10-29T11:50:06.471Z,3.03
2022-10-29T11:55:18.017Z,2.63
2022-10-29T12:00:28.285Z,2.73
2022-10-29T12:05:39.566Z,2.53
2022-10-29T12:10:54.677Z,2.70
2022-10-29T12:16:05.662Z,2.97
2022-10-29T12:21:16.583Z,2.50
2022-10-29T12:26:27.687Z,3.10
2022-10-29T12:31:41.403Z,2.67
2022-10-29T12:36:54.983Z,3.23
2022-10-29T12:42:05.093Z,2.80
2022-10-29T12:47:16.588Z,3.33
2022-10-29T12:52:27.527Z,3.13
2022-10-29T12:57:36.059Z,3.57
2022-10-29T13:02:45.312Z,3.10
2022-10-29T13:07:58.349Z,3.07
2022-10-29T13:13:09.652Z,3.60
2022-10-29T13:18:22.903Z,3.83
2022-10-29T13:23:42.966Z,3.73
2022-10-29T13:28:51.596Z,3.70
2022-10-29T13:33:59.562Z,4.20
2022-10-29T13:39:10.508Z,3.70
2022-10-29T13:44:21.378Z,3.97
2022-10-29T13:49:34.064Z,4.13
2022-10-29T13:54:45.894Z,4.13
2022-10-29T13:59:56.805Z,4.57
2022-10-29T14:05:07.800Z,4.87
2022-10-29T14:10:19.274Z,5.27
2022-10-29T14:15:27.326Z,4.73
2022-10-29T14:20:35.181Z,4.70
2022-10-29T14:25:43.009Z,5.37
2022-10-29T14:30:53.975Z,4.93
2022-10-29T14:36:06.016Z,5.33
2022-10-29T14:41:14.275Z,5.83
2022-10-29T14:46:24.860Z,8.03
2022-10-29T14:51:35.884Z,8.90
2022-10-29T14:56:44.595Z,8.13
2022-10-29T15:01:57.205Z,8.27
2022-10-29T15:07:08.120Z,6.87
2022-10-29T15:12:19.169Z,7.77
2022-10-29T15:17:29.280Z,8.83
2022-10-29T15:22:39.793Z,8.43
2022-10-29T15:27:49.855Z,7.97
2022-10-29T15:32:59.934Z,8.57
2022-10-29T15:38:11.828Z,7.63
2022-10-29T15:43:26.912Z,14.90
2022-10-29T15:48:38.227Z,22.23
2022-10-29T15:53:46.170Z,13.77
2022-10-29T15:58:54.246Z,12.27
2022-10-29T16:04:02.367Z,14.50
2022-10-29T16:09:13.209Z,15.37
2022-10-29T16:14:21.165Z,18.30
2022-10-29T16:19:29.112Z,15.67
2022-10-29T16:24:37.058Z,16.20
2022-10-29T16:29:46.509Z,15.77
2022-10-29T16:40:13.604Z,16.00
2022-10-29T16:45:24.962Z,16.03
2022-10-29T16:50:34.227Z,14.90
2022-10-29T16:55:42.387Z,15.40
2022-10-29T17:00:52.773Z,14.13
2022-10-29T17:06:04.408Z,14.80
2022-10-29T17:11:12.428Z,14.50
2022-10-29T17:16:20.729Z,16.93
2022-10-29T17:21:33.763Z,20.70
2022-10-29T17:26:41.688Z,20.00
2022-10-29T17:31:50.639Z,16.97
2022-10-29T17:36:58.659Z,17.23
2022-10-29T17:42:06.583Z,15.70
2022-10-29T17:47:14.482Z,16.87
2022-10-29T17:52:22.615Z,11.80
2022-10-29T17:57:32.152Z,12.67
2022-10-29T18:02:41.177Z,14.23
2022-10-29T18:07:50.184Z,14.97
2022-10-29T18:12:58.145Z,15.27
2022-10-29T18:18:06.168Z,14.80
2022-10-29T18:23:14.038Z,16.90
2022-10-29T18:28:21.873Z,19.70
2022-10-29T18:33:29.879Z,22.70
2022-10-29T18:38:38.021Z,19.00
2022-10-29T18:43:47.633Z,19.80
2022-10-29T18:48:56.116Z,19.83
2022-10-29T18:54:06.346Z,20.23
2022-10-29T18:59:14.302Z,20.60
2022-10-29T19:04:22.226Z,18.57
2022-10-29T19:09:30.428Z,24.10
2022-10-29T19:14:38.409Z,27.23
2022-10-29T19:19:47.087Z,21.13
2022-10-29T19:24:58.941Z,20.33
2022-10-29T19:30:14.951Z,18.93
2022-10-29T19:35:28.060Z,21.07
2022-10-29T19:40:38.554Z,19.80
2022-10-29T19:45:48.869Z,20.23
2022-10-29T19:50:57.147Z,23.17
2022-10-29T19:56:05.568Z,23.53
2022-10-29T20:01:17.458Z,22.27
2022-10-29T20:06:28.646Z,23.47
2022-10-29T20:11:37.607Z,22.63
2022-10-29T20:16:47.276Z,23.53
2022-10-29T20:21:55.582Z,21.43
2022-10-29T20:27:03.778Z,23.53
2022-10-29T20:32:11.704Z,22.60
2022-10-29T20:37:20.372Z,21.67
2022-10-29T20:42:28.313Z,22.50
2022-10-29T20:47:38.169Z,21.97
2022-10-29T20:52:49.166Z,20.63
2022-10-29T20:57:58.757Z,20.37
2022-10-29T21:03:09.628Z,19.43
2022-10-29T21:08:20.258Z,20.27
2022-10-29T21:13:31.253Z,20.23
2022-10-29T21:18:41.453Z,20.47
2022-10-29T21:23:58.251Z,19.43
2022-10-29T21:29:20.433Z,18.07
2022-10-29T21:34:33.381Z,17.53
2022-10-29T21:39:41.376Z,18.67
2022-10-29T21:44:50.728Z,20.50
2022-10-29T21:49:59.564Z,19.43
2022-10-29T21:55:07.883Z,19.67
2022-10-29T22:00:16.546Z,22.27
2022-10-29T22:05:24.450Z,21.77
2022-10-29T22:10:32.280Z,19.23
2022-10-29T22:15:40.303Z,21.53
2022-10-29T22:20:56.443Z,19.87
2022-10-29T22:26:04.409Z,21.60
2022-10-29T22:31:12.252Z,21.37
2022-10-29T22:36:22.764Z,18.83
2022-10-29T22:41:31.988Z,19.93
2022-10-29T22:46:41.270Z,20.83
2022-10-29T22:51:50.763Z,21.90
2022-10-29T22:56:59.671Z,22.07
2022-10-29T23:02:08.801Z,20.53
2022-10-29T23:07:18.605Z,19.70
2022-10-29T23:12:27.435Z,18.37
2022-10-29T23:17:37.263Z,18.33
2022-10-29T23:22:46.791Z,18.97
2022-10-29T23:27:56.624Z,19.23
2022-10-29T23:33:05.921Z,19.07
2022-10-29T23:38:14.614Z,19.33
2022-10-29T23:43:23.765Z,20.47
2022-10-29T23:48:32.406Z,19.43
2022-10-29T23:53:42.056Z,19.00
2022-10-29T23:58:50.697Z,19.53
